createdAt,value
2019-06-15T00:00:13.500Z,6.50
2019-06-15T00:01:13.693Z,6.70
2019-06-15T00:02:13.315Z,7.90
2019-06-15T00:03:13.264Z,7.60
2019-06-15T00:04:13.188Z,8.50
2019-06-15T00:05:12.969Z,8.80
2019-06-15T00:06:12.980Z,8.20
2019-06-15T00:07:13.015Z,8.00
2019-06-15T00:08:13.032Z,7.90
2019-06-15T00:09:13.014Z,7.50
2019-06-15T00:10:12.992Z,9.20
2019-06-15T00:11:13.033Z,8.30
2019-06-15T00:12:12.960Z,8.60
2019-06-15T00:13:12.973Z,8.90
2019-06-15T00:14:12.965Z,9.50
2019-06-15T00:15:12.888Z,9.60
2019-06-15T00:16:12.925Z,9.40
2019-06-15T00:17:12.889Z,9.60
2019-06-15T00:18:12.908Z,9.30
2019-06-15T00:19:12.838Z,9.20
2019-06-15T00:20:12.810Z,8.60
2019-06-15T00:21:12.820Z,8.00
2019-06-15T00:22:12.870Z,8.70
2019-06-15T00:23:12.797Z,8.30
2019-06-15T00:24:12.845Z,7.90
2019-06-15T00:25:12.964Z,6.90
2019-06-15T00:26:12.756Z,7.30
2019-06-15T00:27:12.870Z,8.30
2019-06-15T00:28:12.781Z,8.10
2019-06-15T00:29:12.757Z,8.60
2019-06-15T00:30:12.834Z,8.20
2019-06-15T00:31:12.793Z,9.20
2019-06-15T00:32:12.725Z,9.60
2019-06-15T00:33:12.857Z,9.00
2019-06-15T00:34:12.785Z,9.70
2019-06-15T00:35:12.701Z,9.50
2019-06-15T00:36:12.633Z,9.70
2019-06-15T00:37:12.650Z,8.60
2019-06-15T00:38:12.778Z,8.90
2019-06-15T00:39:12.775Z,9.20
2019-06-15T00:40:12.657Z,8.10
2019-06-15T00:41:12.783Z,9.90
2019-06-15T00:42:12.567Z,10.40
2019-06-15T00:43:12.615Z,10.40
2019-06-15T00:44:12.582Z,9.50
2019-06-15T00:45:12.529Z,10.00
2019-06-15T00:46:12.606Z,10.30
2019-06-15T00:47:12.538Z,9.60
2019-06-15T00:48:12.586Z,9.40
2019-06-15T00:49:12.568Z,9.40
2019-06-15T00:50:12.539Z,8.60
2019-06-15T00:51:12.508Z,8.40
2019-06-15T00:52:12.484Z,8.80
2019-06-15T00:53:12.516Z,9.20
2019-06-15T00:54:12.464Z,8.90
2019-06-15T00:55:12.435Z,9.50
2019-06-15T00:56:12.434Z,9.50
2019-06-15T00:57:12.944Z,9.50
2019-06-15T00:58:12.468Z,9.90
2019-06-15T00:59:12.401Z,10.70
2019-06-15T01:00:12.368Z,10.90
2019-06-15T01:01:12.498Z,11.50
2019-06-15T01:02:12.348Z,11.00
2019-06-15T01:03:12.536Z,11.80
2019-06-15T01:04:12.349Z,12.20
2019-06-15T01:05:13.409Z,11.10
2019-06-15T01:06:12.321Z,11.30
2019-06-15T01:07:12.438Z,10.70
2019-06-15T01:08:12.425Z,9.00
2019-06-15T01:09:12.371Z,10.10
2019-06-15T01:10:12.374Z,9.80
2019-06-15T01:11:12.329Z,9.60
2019-06-15T01:12:12.286Z,9.20
2019-06-15T01:13:12.290Z,8.20
2019-06-15T01:14:12.271Z,7.80
2019-06-15T01:15:12.277Z,9.50
2019-06-15T01:16:12.284Z,9.90
2019-06-15T01:17:12.195Z,9.00
2019-06-15T01:18:12.187Z,8.90
2019-06-15T01:19:12.301Z,9.10
2019-06-15T01:20:12.259Z,9.00
2019-06-15T01:21:12.215Z,9.70
2019-06-15T01:22:12.164Z,9.10
2019-06-15T01:23:12.141Z,11.50
2019-06-15T01:24:12.158Z,11.90
2019-06-15T01:25:12.182Z,11.90
2019-06-15T01:26:12.160Z,11.00
2019-06-15T01:27:12.137Z,11.50
2019-06-15T01:28:12.188Z,10.70
2019-06-15T01:29:12.140Z,10.90
2019-06-15T01:30:12.071Z,9.80
2019-06-15T01:31:12.034Z,9.60
2019-06-15T01:32:12.061Z,9.50
2019-06-15T01:33:12.040Z,8.80
2019-06-15T01:34:12.036Z,8.00
2019-06-15T01:35:12.570Z,8.70
2019-06-15T01:36:12.008Z,8.10
2019-06-15T01:37:11.978Z,7.80
2019-06-15T01:38:12.024Z,9.10
2019-06-15T01:39:11.984Z,9.00
2019-06-15T01:40:11.962Z,9.30
2019-06-15T01:41:11.990Z,11.70
2019-06-15T01:42:11.964Z,11.60
2019-06-15T01:43:11.916Z,12.30
2019-06-15T01:44:11.944Z,12.60
2019-06-15T01:45:12.136Z,12.30
2019-06-15T01:46:11.909Z,13.20
2019-06-15T01:47:11.883Z,13.20
2019-06-15T01:48:11.924Z,13.30
2019-06-15T01:49:11.871Z,13.50
2019-06-15T01:50:11.927Z,13.90
2019-06-15T01:51:11.881Z,12.80
2019-06-15T01:52:11.886Z,13.70
2019-06-15T01:53:11.840Z,13.20
2019-06-15T01:54:11.842Z,13.10
2019-06-15T01:55:20.372Z,13.50
2019-06-15T01:56:12.880Z,14.60
2019-06-15T01:57:11.853Z,11.40
2019-06-15T01:58:11.833Z,11.90
2019-06-15T01:59:11.735Z,11.50
2019-06-15T02:00:11.762Z,10.90
2019-06-15T02:01:11.778Z,11.70
2019-06-15T02:02:11.730Z,11.20
2019-06-15T02:03:11.771Z,10.70
2019-06-15T02:04:11.674Z,10.90
2019-06-15T02:05:11.785Z,10.90
2019-06-15T02:06:11.798Z,11.50
2019-06-15T02:07:11.710Z,10.60
2019-06-15T02:08:11.738Z,11.40
2019-06-15T02:09:12.004Z,12.60
2019-06-15T02:10:11.666Z,11.30
2019-06-15T02:11:11.674Z,10.00
2019-06-15T02:12:11.658Z,11.10
2019-06-15T02:13:11.638Z,10.10
2019-06-15T02:14:11.591Z,10.50
2019-06-15T02:15:12.125Z,10.50
2019-06-15T02:16:11.546Z,12.90
2019-06-15T02:17:11.603Z,15.60
2019-06-15T02:18:11.545Z,15.60
2019-06-15T02:19:11.574Z,15.90
2019-06-15T02:20:11.654Z,17.00
2019-06-15T02:21:11.520Z,17.80
2019-06-15T02:22:11.505Z,16.20
2019-06-15T02:23:11.550Z,15.40
2019-06-15T02:24:11.526Z,15.10
2019-06-15T02:25:11.900Z,16.60
2019-06-15T02:26:11.477Z,16.20
2019-06-15T02:27:11.540Z,14.30
2019-06-15T02:28:11.490Z,14.20
2019-06-15T02:29:11.413Z,14.00
2019-06-15T02:30:11.432Z,13.30
2019-06-15T02:31:11.431Z,14.30
2019-06-15T02:32:11.429Z,13.10
2019-06-15T02:33:11.416Z,12.90
2019-06-15T02:34:11.361Z,12.40
2019-06-15T02:35:11.320Z,11.30
2019-06-15T02:36:11.343Z,11.20
2019-06-15T02:37:11.341Z,10.70
2019-06-15T02:38:11.429Z,12.30
2019-06-15T02:39:11.354Z,13.30
2019-06-15T02:40:11.386Z,11.10
2019-06-15T02:41:11.381Z,11.40
2019-06-15T02:42:11.328Z,11.60
2019-06-15T02:43:11.265Z,11.20
2019-06-15T02:44:11.269Z,11.50
2019-06-15T02:45:11.329Z,11.40
2019-06-15T02:46:11.253Z,11.20
2019-06-15T02:47:11.243Z,11.80
2019-06-15T02:48:11.363Z,12.40
2019-06-15T02:49:11.278Z,11.90
2019-06-15T02:50:11.226Z,12.80
2019-06-15T02:51:11.445Z,13.00
2019-06-15T02:52:11.209Z,14.00
2019-06-15T02:53:11.208Z,16.30
2019-06-15T02:54:11.201Z,14.90
2019-06-15T02:55:11.149Z,14.00
2019-06-15T02:56:11.528Z,18.10
2019-06-15T02:57:11.162Z,18.60
2019-06-15T02:58:11.128Z,19.90
2019-06-15T02:59:11.281Z,19.40
2019-06-15T03:00:11.112Z,18.70
2019-06-15T03:01:11.073Z,16.80
2019-06-15T03:02:11.415Z,15.80
2019-06-15T03:03:11.139Z,17.40
2019-06-15T03:04:11.170Z,17.50
2019-06-15T03:05:11.053Z,17.40
2019-06-15T03:06:11.004Z,15.50
2019-06-15T03:07:11.067Z,16.80
2019-06-15T03:08:11.148Z,15.60
2019-06-15T03:09:11.074Z,15.90
2019-06-15T03:10:11.033Z,16.20
2019-06-15T03:11:10.997Z,16.80
2019-06-15T03:12:11.094Z,19.60
2019-06-15T03:13:10.980Z,18.70
2019-06-15T03:14:11.562Z,18.50
2019-06-15T03:15:10.969Z,17.20
2019-06-15T03:16:10.928Z,17.80
2019-06-15T03:17:10.922Z,16.00
2019-06-15T03:18:10.926Z,16.60
2019-06-15T03:19:11.006Z,17.30
2019-06-15T03:20:10.867Z,16.40
2019-06-15T03:21:10.875Z,16.40
2019-06-15T03:22:10.873Z,15.60
2019-06-15T03:23:10.943Z,15.70
2019-06-15T03:24:10.836Z,14.80
2019-06-15T03:25:10.887Z,15.10
2019-06-15T03:26:10.838Z,15.50
2019-06-15T03:27:10.800Z,15.00
2019-06-15T03:28:10.777Z,15.30
2019-06-15T03:29:10.835Z,15.30
2019-06-15T03:30:10.784Z,16.20
2019-06-15T03:31:10.811Z,16.80
2019-06-15T03:32:11.123Z,15.80
2019-06-15T03:33:10.748Z,15.50
2019-06-15T03:34:10.754Z,16.30
2019-06-15T03:35:10.786Z,15.50
2019-06-15T03:36:10.738Z,14.50
2019-06-15T03:37:10.673Z,16.10
2019-06-15T03:38:10.683Z,15.90
2019-06-15T03:39:10.654Z,14.70
2019-06-15T03:40:10.765Z,13.70
2019-06-15T03:41:10.721Z,13.90
2019-06-15T03:42:10.657Z,13.60
2019-06-15T03:43:10.768Z,14.40
2019-06-15T03:44:10.661Z,14.10
2019-06-15T03:45:10.600Z,13.80
2019-06-15T03:46:10.730Z,14.20
2019-06-15T03:47:10.607Z,15.20
2019-06-15T03:48:10.553Z,16.50
2019-06-15T03:49:10.561Z,16.00
2019-06-15T03:50:10.589Z,15.00
2019-06-15T03:51:10.643Z,14.70
2019-06-15T03:52:10.540Z,14.00
2019-06-15T03:53:10.545Z,15.90
2019-06-15T03:54:10.566Z,16.00
2019-06-15T03:55:10.497Z,15.10
2019-06-15T03:56:21.035Z,14.50
2019-06-15T03:57:11.429Z,13.20
2019-06-15T03:58:10.491Z,12.00
2019-06-15T03:59:10.574Z,12.10
2019-06-15T04:00:10.465Z,11.90
2019-06-15T04:01:10.450Z,11.50
2019-06-15T04:02:10.441Z,11.90
2019-06-15T04:03:10.506Z,11.70
2019-06-15T04:04:10.464Z,11.30
2019-06-15T04:05:10.374Z,12.50
2019-06-15T04:06:10.442Z,13.00
2019-06-15T04:07:10.394Z,12.60
2019-06-15T04:08:10.375Z,13.30
2019-06-15T04:09:10.362Z,12.70
2019-06-15T04:10:10.366Z,11.90
2019-06-15T04:11:10.289Z,13.60
2019-06-15T04:12:10.342Z,13.10
2019-06-15T04:13:10.355Z,12.60
2019-06-15T04:14:10.299Z,12.10
2019-06-15T04:15:10.385Z,11.00
2019-06-15T04:16:10.230Z,11.70
2019-06-15T04:17:10.323Z,11.20
2019-06-15T04:18:10.233Z,13.20
2019-06-15T04:19:10.250Z,13.10
2019-06-15T04:20:10.423Z,14.30
2019-06-15T04:21:10.266Z,14.20
2019-06-15T04:22:10.258Z,12.80
2019-06-15T04:23:10.207Z,13.40
2019-06-15T04:24:10.235Z,14.10
2019-06-15T04:25:10.183Z,14.30
2019-06-15T04:26:10.151Z,14.60
2019-06-15T04:27:10.129Z,14.10
2019-06-15T04:28:10.217Z,12.70
2019-06-15T04:29:10.127Z,13.30
2019-06-15T04:30:10.178Z,13.40
2019-06-15T04:31:10.132Z,13.10
2019-06-15T04:32:10.129Z,12.40
2019-06-15T04:33:11.592Z,12.70
2019-06-15T04:34:10.828Z,12.80
2019-06-15T04:35:10.270Z,13.00
2019-06-15T04:36:10.039Z,13.10
2019-06-15T04:37:10.175Z,12.60
2019-06-15T04:38:10.084Z,12.50
2019-06-15T04:39:10.093Z,12.40
2019-06-15T04:40:10.056Z,12.20
2019-06-15T04:41:09.981Z,12.90
2019-06-15T04:42:09.973Z,12.20
2019-06-15T04:43:10.247Z,12.70
2019-06-15T04:44:11.424Z,12.20
2019-06-15T04:45:11.944Z,11.80
2019-06-15T04:46:10.063Z,12.60
2019-06-15T04:47:12.047Z,12.50
2019-06-15T04:48:10.618Z,13.50
2019-06-15T04:49:10.166Z,13.40
2019-06-15T04:50:11.645Z,13.60
2019-06-15T04:51:10.259Z,13.80
2019-06-15T04:52:10.025Z,13.40
2019-06-15T04:53:14.670Z,13.90
2019-06-15T04:54:10.068Z,13.10
2019-06-15T04:55:10.167Z,14.50
2019-06-15T04:56:15.623Z,15.00
2019-06-15T04:57:10.375Z,14.00
2019-06-15T04:58:11.151Z,15.10
2019-06-15T04:59:10.795Z,15.60
2019-06-15T05:00:11.438Z,15.10
2019-06-15T05:01:13.251Z,15.00
2019-06-15T05:02:11.552Z,15.00
2019-06-15T05:03:11.433Z,15.40
2019-06-15T05:04:12.117Z,15.00
2019-06-15T05:05:12.759Z,14.60
2019-06-15T05:06:11.283Z,15.90
2019-06-15T05:07:10.246Z,17.30
2019-06-15T05:08:10.122Z,16.80
2019-06-15T05:09:11.065Z,18.20
2019-06-15T05:10:11.248Z,18.20
2019-06-15T05:11:11.078Z,19.30
2019-06-15T05:12:09.939Z,19.70
2019-06-15T05:13:10.474Z,19.20
2019-06-15T05:14:12.168Z,18.90
2019-06-15T05:15:10.371Z,18.70
2019-06-15T05:16:10.278Z,20.40
2019-06-15T05:17:11.904Z,19.30
2019-06-15T05:18:13.468Z,20.00
2019-06-15T05:19:10.646Z,19.80
2019-06-15T05:20:09.635Z,19.50
2019-06-15T05:21:09.721Z,18.70
2019-06-15T05:22:09.503Z,18.10
2019-06-15T05:23:09.505Z,19.20
2019-06-15T05:24:09.716Z,18.50
2019-06-15T05:25:09.471Z,18.50
2019-06-15T05:26:09.464Z,18.10
2019-06-15T05:27:09.451Z,18.80
2019-06-15T05:28:09.451Z,18.60
2019-06-15T05:29:10.087Z,19.60
2019-06-15T05:30:09.438Z,18.00
2019-06-15T05:31:09.404Z,18.90
2019-06-15T05:32:09.520Z,18.50
2019-06-15T05:33:09.396Z,17.20
2019-06-15T05:34:09.401Z,18.40
2019-06-15T05:35:09.435Z,16.90
2019-06-15T05:36:09.366Z,18.10
2019-06-15T05:37:09.364Z,16.60
2019-06-15T05:38:09.561Z,15.10
2019-06-15T05:39:09.347Z,15.40
2019-06-15T05:40:09.315Z,15.80
2019-06-15T05:41:09.308Z,14.80
2019-06-15T05:42:09.298Z,14.70
2019-06-15T05:43:09.284Z,14.70
2019-06-15T05:44:09.260Z,15.10
2019-06-15T05:45:10.967Z,15.30
2019-06-15T05:46:09.465Z,14.90
2019-06-15T05:47:09.516Z,14.40
2019-06-15T05:48:09.420Z,15.70
2019-06-15T05:49:09.593Z,14.80
2019-06-15T05:50:09.188Z,15.90
2019-06-15T05:51:09.358Z,14.90
2019-06-15T05:52:09.446Z,14.60
2019-06-15T05:53:10.685Z,14.20
2019-06-15T05:54:09.284Z,14.60
2019-06-15T05:55:09.264Z,14.20
2019-06-15T05:56:09.168Z,13.00
2019-06-15T05:57:20.838Z,13.80
2019-06-15T05:58:11.052Z,13.90
2019-06-15T05:59:09.293Z,12.90
2019-06-15T06:00:09.173Z,13.10
2019-06-15T06:01:09.195Z,12.70
2019-06-15T06:02:09.200Z,12.40
2019-06-15T06:03:09.293Z,11.20
2019-06-15T06:04:09.091Z,11.20
2019-06-15T06:05:09.115Z,11.00
2019-06-15T06:06:09.206Z,11.40
2019-06-15T06:07:09.067Z,11.80
2019-06-15T06:08:09.316Z,11.20
2019-06-15T06:09:08.978Z,10.80
2019-06-15T06:10:10.965Z,11.40
2019-06-15T06:11:09.047Z,11.00
2019-06-15T06:12:09.078Z,11.40
2019-06-15T06:13:09.164Z,10.20
2019-06-15T06:14:09.000Z,10.80
2019-06-15T06:15:09.080Z,11.10
2019-06-15T06:16:09.317Z,10.60
2019-06-15T06:17:08.940Z,9.80
2019-06-15T06:18:08.908Z,10.50
2019-06-15T06:19:08.938Z,10.60
2019-06-15T06:20:08.901Z,11.20
2019-06-15T06:21:08.875Z,10.40
2019-06-15T06:22:08.897Z,11.10
2019-06-15T06:23:10.369Z,10.60
2019-06-15T06:24:09.187Z,10.70
2019-06-15T06:25:09.003Z,10.70
2019-06-15T06:26:08.898Z,10.70
2019-06-15T06:27:08.802Z,10.60
2019-06-15T06:28:08.839Z,11.70
2019-06-15T06:29:08.836Z,11.30
2019-06-15T06:30:08.860Z,12.00
2019-06-15T06:31:08.781Z,11.90
2019-06-15T06:32:08.791Z,12.30
2019-06-15T06:33:08.758Z,12.20
2019-06-15T06:34:08.787Z,12.70
2019-06-15T06:35:08.853Z,14.00
2019-06-15T06:36:08.907Z,14.70
2019-06-15T06:37:08.744Z,14.60
2019-06-15T06:38:08.746Z,15.10
2019-06-15T06:39:08.732Z,15.50
2019-06-15T06:40:08.979Z,15.10
2019-06-15T06:41:08.840Z,16.40
2019-06-15T06:42:08.655Z,16.80
2019-06-15T06:43:08.610Z,17.80
2019-06-15T06:44:08.611Z,19.10
2019-06-15T06:45:08.611Z,19.10
2019-06-15T06:46:09.059Z,18.80
2019-06-15T06:47:08.581Z,19.90
2019-06-15T06:48:08.582Z,19.70
2019-06-15T06:49:08.575Z,19.80
2019-06-15T06:50:08.538Z,19.70
2019-06-15T06:51:08.902Z,20.20
2019-06-15T06:52:08.952Z,21.00
2019-06-15T06:53:08.696Z,22.50
2019-06-15T06:54:08.643Z,21.70
2019-06-15T06:55:08.801Z,21.80
2019-06-15T06:56:08.496Z,22.10
2019-06-15T06:57:08.462Z,23.30
2019-06-15T06:58:08.462Z,22.30
2019-06-15T06:59:08.671Z,22.90
2019-06-15T07:00:08.550Z,24.80
2019-06-15T07:01:08.606Z,26.60
2019-06-15T07:02:08.471Z,25.90
2019-06-15T07:03:08.498Z,26.60
2019-06-15T07:04:08.674Z,27.60
2019-06-15T07:05:08.919Z,26.20
2019-06-15T07:06:08.368Z,27.70
2019-06-15T07:07:08.382Z,27.30
2019-06-15T07:08:08.394Z,27.80
2019-06-15T07:09:08.361Z,28.00
2019-06-15T07:10:08.329Z,28.60
2019-06-15T07:11:08.365Z,31.60
2019-06-15T07:12:08.322Z,31.80
2019-06-15T07:13:08.332Z,32.60
2019-06-15T07:14:08.358Z,34.00
2019-06-15T07:15:08.275Z,34.30
2019-06-15T07:16:08.308Z,36.30
2019-06-15T07:17:08.269Z,35.60
2019-06-15T07:18:08.589Z,33.50
2019-06-15T07:19:09.094Z,34.10
2019-06-15T07:20:08.399Z,31.70
2019-06-15T07:21:08.531Z,30.60
2019-06-15T07:22:08.256Z,29.90
2019-06-15T07:23:08.204Z,29.30
2019-06-15T07:24:08.164Z,28.30
2019-06-15T07:25:08.272Z,29.70
2019-06-15T07:26:08.267Z,28.90
2019-06-15T07:27:08.158Z,29.20
2019-06-15T07:28:08.693Z,29.70
2019-06-15T07:29:08.303Z,29.70
2019-06-15T07:30:10.266Z,28.80
2019-06-15T07:31:08.103Z,28.80
2019-06-15T07:32:08.092Z,29.10
2019-06-15T07:33:08.083Z,29.80
2019-06-15T07:34:08.076Z,28.50
2019-06-15T07:35:08.076Z,29.10
2019-06-15T07:36:08.052Z,28.90
2019-06-15T07:37:08.026Z,28.40
2019-06-15T07:38:09.214Z,28.40
2019-06-15T07:39:09.059Z,27.40
2019-06-15T07:40:09.400Z,27.30
2019-06-15T07:41:08.033Z,28.30
2019-06-15T07:42:08.188Z,27.80
2019-06-15T07:43:07.973Z,29.80
2019-06-15T07:44:08.233Z,29.10
2019-06-15T07:45:08.042Z,29.20
2019-06-15T07:46:07.981Z,31.10
2019-06-15T07:47:07.915Z,29.40
2019-06-15T07:48:07.971Z,28.70
2019-06-15T07:49:07.914Z,28.10
2019-06-15T07:50:07.880Z,27.60
2019-06-15T07:51:07.887Z,28.90
2019-06-15T07:52:07.887Z,28.90
2019-06-15T07:53:07.878Z,27.50
2019-06-15T07:54:07.854Z,27.70
2019-06-15T07:55:07.881Z,28.50
2019-06-15T07:56:07.845Z,27.90
2019-06-15T07:57:07.850Z,28.70
2019-06-15T07:58:23.385Z,28.40
2019-06-15T07:59:08.811Z,29.40
2019-06-15T08:00:07.792Z,31.20
2019-06-15T08:01:07.807Z,30.10
2019-06-15T08:02:07.750Z,29.30
2019-06-15T08:03:07.904Z,29.50
2019-06-15T08:04:07.746Z,29.30
2019-06-15T08:05:07.715Z,30.70
2019-06-15T08:06:07.744Z,28.50
2019-06-15T08:07:07.715Z,29.70
2019-06-15T08:08:07.732Z,30.80
2019-06-15T08:09:07.672Z,31.50
2019-06-15T08:10:08.747Z,31.70
2019-06-15T08:11:07.714Z,34.20
2019-06-15T08:12:07.680Z,35.70
2019-06-15T08:13:07.653Z,35.40
2019-06-15T08:14:07.641Z,37.90
2019-06-15T08:15:07.623Z,38.90
2019-06-15T08:16:07.650Z,40.70
2019-06-15T08:17:07.610Z,41.60
2019-06-15T08:18:09.693Z,40.00
2019-06-15T08:19:07.742Z,40.00
2019-06-15T08:20:07.605Z,37.90
2019-06-15T08:21:07.590Z,38.80
2019-06-15T08:22:07.526Z,36.60
2019-06-15T08:23:07.530Z,36.70
2019-06-15T08:24:07.570Z,35.50
2019-06-15T08:25:07.505Z,34.40
2019-06-15T08:26:07.540Z,36.60
2019-06-15T08:27:07.488Z,28.00
2019-06-15T08:28:07.480Z,29.60
2019-06-15T08:29:07.464Z,28.20
2019-06-15T08:30:07.460Z,31.30
2019-06-15T08:31:07.437Z,28.40
2019-06-15T08:32:07.467Z,26.20
2019-06-15T08:33:07.435Z,26.70
2019-06-15T08:34:08.614Z,26.90
2019-06-15T08:35:07.398Z,23.20
2019-06-15T08:36:07.406Z,23.40
2019-06-15T08:37:07.376Z,22.80
2019-06-15T08:38:07.413Z,20.30
2019-06-15T08:39:07.374Z,19.20
2019-06-15T08:40:07.349Z,18.90
2019-06-15T08:41:07.325Z,17.30
2019-06-15T08:42:07.365Z,14.00
2019-06-15T08:43:07.347Z,14.10
2019-06-15T08:44:08.803Z,13.10
2019-06-15T08:45:07.495Z,13.00
2019-06-15T08:46:07.373Z,12.90
2019-06-15T08:47:07.316Z,13.50
2019-06-15T08:48:07.431Z,11.40
2019-06-15T08:49:07.349Z,10.10
2019-06-15T08:50:07.250Z,9.70
2019-06-15T08:51:07.270Z,9.30
2019-06-15T08:52:07.260Z,9.40
2019-06-15T08:53:07.296Z,8.80
2019-06-15T08:54:07.326Z,7.70
2019-06-15T08:55:07.319Z,7.50
2019-06-15T08:56:07.260Z,6.90
2019-06-15T08:57:07.345Z,7.10
2019-06-15T08:58:07.263Z,6.20
2019-06-15T08:59:07.311Z,6.60
2019-06-15T09:00:07.185Z,6.30
2019-06-15T09:01:07.127Z,6.30
2019-06-15T09:02:07.191Z,5.50
2019-06-15T09:03:07.222Z,5.60
2019-06-15T09:04:07.146Z,5.50
2019-06-15T09:05:07.097Z,5.60
2019-06-15T09:06:07.160Z,5.70
2019-06-15T09:07:07.186Z,5.60
2019-06-15T09:08:07.197Z,5.40
2019-06-15T09:09:07.222Z,5.10
2019-06-15T09:10:07.063Z,5.20
2019-06-15T09:11:07.035Z,5.40
2019-06-15T09:12:07.100Z,4.90
2019-06-15T09:13:07.126Z,4.50
2019-06-15T09:14:07.073Z,4.90
2019-06-15T09:15:06.999Z,4.20
2019-06-15T09:16:07.095Z,4.00
2019-06-15T09:17:07.054Z,3.80
2019-06-15T09:18:07.009Z,3.90
2019-06-15T09:19:07.117Z,4.10
2019-06-15T09:20:06.963Z,3.90
2019-06-15T09:21:07.073Z,3.60
2019-06-15T09:22:06.931Z,4.00
2019-06-15T09:23:06.938Z,3.70
2019-06-15T09:24:06.938Z,3.80
2019-06-15T09:25:07.211Z,3.70
2019-06-15T09:26:06.931Z,3.40
2019-06-15T09:27:06.947Z,3.30
2019-06-15T09:28:06.893Z,3.30
2019-06-15T09:29:11.197Z,3.00
2019-06-15T09:30:07.096Z,3.20
2019-06-15T09:31:06.899Z,2.80
2019-06-15T09:32:07.033Z,3.30
2019-06-15T09:33:06.856Z,3.20
2019-06-15T09:34:18.616Z,3.40
2019-06-15T09:35:07.822Z,3.70
2019-06-15T09:36:06.919Z,3.30
2019-06-15T09:37:06.815Z,3.30
2019-06-15T09:38:06.746Z,3.50
2019-06-15T09:39:06.792Z,3.00
2019-06-15T09:40:06.759Z,3.10
2019-06-15T09:41:06.712Z,3.40
2019-06-15T09:42:06.824Z,3.40
2019-06-15T09:43:06.809Z,3.30
2019-06-15T09:44:06.825Z,3.30
2019-06-15T09:45:06.723Z,3.50
2019-06-15T09:46:06.743Z,3.00
2019-06-15T09:47:06.874Z,3.50
2019-06-15T09:48:06.787Z,3.00
2019-06-15T09:49:06.816Z,3.50
2019-06-15T09:50:06.626Z,3.20
2019-06-15T09:51:06.671Z,3.10
2019-06-15T09:52:06.654Z,3.60
2019-06-15T09:53:06.703Z,3.60
2019-06-15T09:54:06.576Z,3.10
2019-06-15T09:55:06.559Z,3.00
2019-06-15T09:56:06.655Z,3.00
2019-06-15T09:57:06.720Z,3.10
2019-06-15T09:58:06.546Z,3.10
2019-06-15T09:59:06.548Z,3.10
2019-06-15T10:00:06.501Z,3.10
2019-06-15T10:01:06.544Z,2.90
2019-06-15T10:02:06.496Z,2.80
2019-06-15T10:03:06.574Z,3.00
2019-06-15T10:04:06.501Z,3.30
2019-06-15T10:05:06.482Z,2.90
2019-06-15T10:06:11.501Z,3.00
2019-06-15T10:07:07.555Z,3.30
2019-06-15T10:08:06.541Z,2.80
2019-06-15T10:09:06.573Z,2.90
2019-06-15T10:10:06.536Z,2.90
2019-06-15T10:11:06.546Z,3.00
2019-06-15T10:12:06.422Z,2.80
2019-06-15T10:13:06.395Z,3.40
2019-06-15T10:14:06.344Z,2.90
2019-06-15T10:15:06.393Z,2.60
2019-06-15T10:16:06.464Z,2.50
2019-06-15T10:17:06.401Z,2.90
2019-06-15T10:18:06.404Z,2.70
2019-06-15T10:19:06.358Z,2.30
2019-06-15T10:20:06.330Z,2.30
2019-06-15T10:21:06.362Z,2.40
2019-06-15T10:22:06.289Z,2.40
2019-06-15T10:23:06.283Z,2.00
2019-06-15T10:24:06.335Z,2.00
2019-06-15T10:25:06.232Z,2.10
2019-06-15T10:26:06.245Z,2.10
2019-06-15T10:27:06.216Z,1.90
2019-06-15T10:28:06.266Z,2.10
2019-06-15T10:29:06.279Z,1.90
2019-06-15T10:30:06.166Z,2.10
2019-06-15T10:31:06.237Z,1.90
2019-06-15T10:32:06.195Z,2.10
2019-06-15T10:33:06.165Z,2.10
2019-06-15T10:34:06.195Z,2.00
2019-06-15T10:35:06.208Z,2.10
2019-06-15T10:36:09.537Z,1.90
2019-06-15T10:37:06.136Z,2.00
2019-06-15T10:38:06.103Z,1.90
2019-06-15T10:39:06.141Z,2.00
2019-06-15T10:40:06.113Z,2.00
2019-06-15T10:41:06.094Z,1.90
2019-06-15T10:42:06.069Z,2.00
2019-06-15T10:43:06.083Z,2.30
2019-06-15T10:44:06.134Z,1.90
2019-06-15T10:45:06.013Z,2.20
2019-06-15T10:46:06.428Z,1.90
2019-06-15T10:47:06.091Z,2.10
2019-06-15T10:48:05.954Z,2.10
2019-06-15T10:49:05.949Z,1.90
2019-06-15T10:50:05.932Z,2.30
2019-06-15T10:51:05.926Z,1.80
2019-06-15T10:52:06.906Z,2.10
2019-06-15T10:53:05.919Z,2.30
2019-06-15T10:54:05.906Z,2.40
2019-06-15T10:55:05.976Z,2.60
2019-06-15T10:56:05.866Z,3.20
2019-06-15T10:57:05.901Z,2.90
2019-06-15T10:58:05.854Z,2.90
2019-06-15T10:59:05.989Z,3.30
2019-06-15T11:00:06.151Z,2.80
2019-06-15T11:01:05.830Z,3.10
2019-06-15T11:02:05.814Z,3.70
2019-06-15T11:03:05.818Z,4.30
2019-06-15T11:04:05.834Z,4.40
2019-06-15T11:05:05.827Z,4.70
2019-06-15T11:06:05.754Z,4.60
2019-06-15T11:07:05.797Z,5.20
2019-06-15T11:08:05.898Z,4.80
2019-06-15T11:09:06.667Z,4.80
2019-06-15T11:10:05.996Z,5.30
2019-06-15T11:11:05.729Z,5.90
2019-06-15T11:12:05.696Z,5.90
2019-06-15T11:13:05.692Z,5.60
2019-06-15T11:14:05.669Z,5.70
2019-06-15T11:15:05.671Z,5.10
2019-06-15T11:16:05.735Z,5.50
2019-06-15T11:17:05.667Z,5.40
2019-06-15T11:18:05.637Z,5.80
2019-06-15T11:19:05.637Z,5.20
2019-06-15T11:20:05.679Z,5.10
2019-06-15T11:21:05.594Z,5.00
2019-06-15T11:22:05.609Z,5.00
2019-06-15T11:23:05.621Z,5.00
2019-06-15T11:24:05.565Z,4.90
2019-06-15T11:25:05.586Z,5.70
2019-06-15T11:26:05.561Z,5.50
2019-06-15T11:27:05.539Z,5.10
2019-06-15T11:28:05.529Z,5.40
2019-06-15T11:29:05.542Z,5.00
2019-06-15T11:30:13.701Z,5.20
2019-06-15T11:31:06.487Z,5.60
2019-06-15T11:32:05.495Z,6.00
2019-06-15T11:33:05.494Z,5.30
2019-06-15T11:34:05.490Z,5.20
2019-06-15T11:35:05.459Z,4.90
2019-06-15T11:36:05.462Z,4.80
2019-06-15T11:37:05.440Z,4.40
2019-06-15T11:38:05.423Z,4.40
2019-06-15T11:39:05.438Z,4.30
2019-06-15T11:40:05.449Z,4.30
2019-06-15T11:41:05.384Z,4.50
2019-06-15T11:42:05.392Z,3.50
2019-06-15T11:43:05.373Z,3.60
2019-06-15T11:44:05.366Z,3.60
2019-06-15T11:45:05.381Z,3.40
2019-06-15T11:46:05.363Z,3.60
2019-06-15T11:47:05.357Z,3.50
2019-06-15T11:48:05.346Z,3.70
2019-06-15T11:49:05.329Z,3.90
2019-06-15T11:50:05.299Z,3.80
2019-06-15T11:51:05.308Z,3.70
2019-06-15T11:52:05.289Z,3.90
2019-06-15T11:53:05.279Z,3.50
2019-06-15T11:54:05.258Z,3.70
2019-06-15T11:55:05.263Z,3.70
2019-06-15T11:56:05.264Z,3.00
2019-06-15T11:57:05.242Z,3.40
2019-06-15T11:58:05.223Z,3.30
2019-06-15T11:59:05.214Z,3.30
2019-06-15T12:00:05.191Z,3.40
2019-06-15T12:01:05.200Z,3.00
2019-06-15T12:02:05.173Z,2.90
2019-06-15T12:03:05.169Z,3.10
2019-06-15T12:04:05.168Z,2.70
2019-06-15T12:05:05.158Z,2.30
2019-06-15T12:06:05.163Z,2.50
2019-06-15T12:07:05.151Z,2.50
2019-06-15T12:08:05.112Z,2.50
2019-06-15T12:09:05.106Z,2.40
2019-06-15T12:10:05.098Z,2.70
2019-06-15T12:11:05.082Z,2.90
2019-06-15T12:12:05.072Z,2.30
2019-06-15T12:13:05.076Z,2.30
2019-06-15T12:14:05.054Z,2.70
2019-06-15T12:15:05.032Z,2.50
2019-06-15T12:16:05.037Z,2.30
2019-06-15T12:17:05.051Z,2.40
2019-06-15T12:18:05.007Z,2.10
2019-06-15T12:19:05.025Z,2.50
2019-06-15T12:20:05.015Z,2.40
2019-06-15T12:21:04.978Z,2.20
2019-06-15T12:22:04.996Z,2.40
2019-06-15T12:23:04.957Z,2.30
2019-06-15T12:24:04.945Z,2.40
2019-06-15T12:25:04.954Z,2.20
2019-06-15T12:26:04.927Z,2.10
2019-06-15T12:27:04.923Z,1.90
2019-06-15T12:28:04.917Z,2.30
2019-06-15T12:29:07.695Z,2.10
2019-06-15T12:30:04.899Z,2.10
2019-06-15T12:31:04.885Z,1.90
2019-06-15T12:32:04.875Z,2.00
2019-06-15T12:33:04.878Z,2.10
2019-06-15T12:34:04.847Z,2.00
2019-06-15T12:35:04.827Z,2.20
2019-06-15T12:36:18.385Z,1.80
2019-06-15T12:37:05.817Z,2.40
2019-06-15T12:38:04.810Z,2.00
2019-06-15T12:39:04.816Z,2.00
2019-06-15T12:40:04.799Z,2.10
2019-06-15T12:41:04.771Z,2.20
2019-06-15T12:42:04.758Z,1.80
2019-06-15T12:43:04.761Z,2.00
2019-06-15T12:44:04.727Z,1.80
2019-06-15T12:45:04.766Z,1.90
2019-06-15T12:46:04.720Z,1.60
2019-06-15T12:47:04.698Z,1.70
2019-06-15T12:48:04.708Z,1.60
2019-06-15T12:49:04.720Z,1.80
2019-06-15T12:50:04.677Z,1.80
2019-06-15T12:51:04.671Z,1.70
2019-06-15T12:52:04.669Z,1.50
2019-06-15T12:53:04.643Z,2.00
2019-06-15T12:54:04.640Z,1.70
2019-06-15T12:55:04.630Z,1.70
2019-06-15T12:56:04.617Z,1.80
2019-06-15T12:57:04.638Z,1.80
2019-06-15T12:58:04.597Z,2.00
2019-06-15T12:59:04.588Z,2.10
2019-06-15T13:00:04.571Z,1.80
2019-06-15T13:01:04.600Z,1.80
2019-06-15T13:02:04.590Z,1.90
2019-06-15T13:03:04.550Z,1.80